createdAt,value
2019-05-11T00:04:52.163Z,32.38
2019-05-11T00:09:58.534Z,33.00
2019-05-11T00:15:06.003Z,34.00
2019-05-11T00:20:15.102Z,35.00
2019-05-11T00:25:24.118Z,35.00
2019-05-11T00:30:31.555Z,35.13
2019-05-11T00:35:40.713Z,34.50
2019-05-11T00:40:48.242Z,34.00
2019-05-11T00:45:54.853Z,32.00
2019-05-11T00:51:03.421Z,33.25
2019-05-11T00:56:10.918Z,30.62
2019-05-11T01:01:18.647Z,32.00
2019-05-11T01:06:25.543Z,33.78
2019-05-11T01:11:32.262Z,33.78
2019-05-11T01:16:40.792Z,32.00
2019-05-11T01:21:46.829Z,32.13
2019-05-11T01:26:55.299Z,29.33
2019-05-11T01:32:04.567Z,33.38
2019-05-11T01:37:14.472Z,32.56
2019-05-11T01:42:23.552Z,31.12
2019-05-11T01:47:32.723Z,33.75
2019-05-11T01:52:41.759Z,28.38
2019-05-11T01:57:50.852Z,30.37
2019-05-11T02:02:56.528Z,31.20
2019-05-11T02:08:03.397Z,32.38
2019-05-11T02:13:10.277Z,31.12
2019-05-11T02:18:17.269Z,32.67
2019-05-11T02:23:22.289Z,30.57
2019-05-11T02:28:30.745Z,35.88
2019-05-11T02:33:38.435Z,32.38
2019-05-11T02:38:45.943Z,30.00
2019-05-11T02:43:55.138Z,30.75
2019-05-11T02:48:58.447Z,33.67
2019-05-11T02:54:06.005Z,26.43
2019-05-11T02:59:10.899Z,30.00
2019-05-11T03:04:14.887Z,27.75
2019-05-11T03:09:23.851Z,35.13
2019-05-11T03:14:28.517Z,26.75
2019-05-11T03:19:34.181Z,29.50
2019-05-11T03:24:38.107Z,29.67
2019-05-11T03:29:44.548Z,30.00
2019-05-11T03:34:48.686Z,29.50
2019-05-11T03:39:58.618Z,31.00
2019-05-11T03:45:06.992Z,31.12
2019-05-11T03:50:16.419Z,28.00
2019-05-11T03:55:21.547Z,27.25
2019-05-11T04:00:25.820Z,26.25
2019-05-11T04:05:30.108Z,22.00
2019-05-11T04:10:34.389Z,35.00
2019-05-11T04:15:38.543Z,26.25
2019-05-11T04:20:42.912Z,29.25
2019-05-11T04:25:51.348Z,26.25
2019-05-11T04:30:58.883Z,25.62
2019-05-11T04:36:07.144Z,28.38
2019-05-11T04:41:16.592Z,28.87
2019-05-11T04:46:23.016Z,26.00
2019-05-11T04:51:28.778Z,27.25
2019-05-11T04:56:38.816Z,26.22
2019-05-11T05:01:47.911Z,31.75
2019-05-11T05:06:59.978Z,26.43
2019-05-11T05:12:02.034Z,29.00
2019-05-11T05:17:07.161Z,24.00
2019-05-11T05:22:15.730Z,26.00
2019-05-11T05:27:20.681Z,24.25
2019-05-11T05:32:24.184Z,26.00
2019-05-11T05:37:30.307Z,21.62
2019-05-11T05:42:34.646Z,22.33
2019-05-11T05:47:38.076Z,14.50
2019-05-11T05:52:43.417Z,21.00
2019-05-11T05:57:47.823Z,25.00
2019-05-11T06:02:51.639Z,25.00
2019-05-11T06:07:56.038Z,24.75
2019-05-11T06:13:02.121Z,22.75
2019-05-11T06:18:18.910Z,20.00
2019-05-11T06:23:26.900Z,17.12
2019-05-11T06:28:33.413Z,17.50
2019-05-11T06:33:39.396Z,13.00
2019-05-11T06:38:48.820Z,22.87
2019-05-11T06:44:01.661Z,14.43
2019-05-11T06:49:02.778Z,20.00
2019-05-11T06:54:05.593Z,18.00
2019-05-11T06:59:11.043Z,18.00
2019-05-11T07:04:15.681Z,14.00
2019-05-11T07:09:19.407Z,12.83
2019-05-11T07:14:24.840Z,13.29
2019-05-11T07:19:29.159Z,8.83
2019-05-11T07:24:33.743Z,9.33
2019-05-11T07:29:38.344Z,11.83
2019-05-11T07:34:41.959Z,11.00
2019-05-11T07:39:48.585Z,12.43
2019-05-11T07:44:52.655Z,13.50
2019-05-11T07:49:57.871Z,12.00
2019-05-11T07:55:03.503Z,16.00
2019-05-11T08:00:10.093Z,11.57
2019-05-11T08:05:14.738Z,24.71
2019-05-11T08:10:18.714Z,7.67
2019-05-11T08:15:23.979Z,9.17
2019-05-11T08:20:28.193Z,15.00
2019-05-11T08:25:33.415Z,11.00
2019-05-11T08:30:40.690Z,9.33
2019-05-11T08:35:44.677Z,11.00
2019-05-11T08:40:48.546Z,27.25
2019-05-11T08:45:53.154Z,10.00
2019-05-11T08:50:58.711Z,13.71
2019-05-11T08:56:04.376Z,7.00
2019-05-11T09:01:09.162Z,9.33
2019-05-11T09:06:13.999Z,12.00
2019-05-11T09:11:19.037Z,5.00
2019-05-11T09:16:23.103Z,10.00
2019-05-11T09:21:28.411Z,11.00
2019-05-11T09:26:32.003Z,5.17
2019-05-11T09:31:38.417Z,22.25
2019-05-11T09:36:42.775Z,10.00
2019-05-11T09:41:48.788Z,11.17
2019-05-11T09:46:53.178Z,8.33
2019-05-11T09:52:01.091Z,9.50
2019-05-11T09:57:08.266Z,8.67
2019-05-11T10:02:13.379Z,8.83
2019-05-11T10:07:22.266Z,10.09
2019-05-11T10:12:25.169Z,4.40
2019-05-11T10:17:28.937Z,5.50
2019-05-11T10:22:34.867Z,11.00
2019-05-11T10:27:41.850Z,6.00
2019-05-11T10:32:48.367Z,16.00
2019-05-11T10:37:52.494Z,6.00
2019-05-11T10:42:56.154Z,6.50
2019-05-11T10:48:04.094Z,4.00
2019-05-11T10:53:11.061Z,6.40
2019-05-11T10:58:18.581Z,6.00
2019-05-11T11:03:25.108Z,7.00
2019-05-11T11:08:32.240Z,12.17
2019-05-11T11:13:35.966Z,8.50
2019-05-11T11:18:40.578Z,7.50
2019-05-11T11:23:48.147Z,11.50
2019-05-11T11:28:51.756Z,10.50
2019-05-11T11:33:58.382Z,8.00
2019-05-11T11:39:08.359Z,20.62
2019-05-11T11:44:13.309Z,11.00
2019-05-11T11:49:19.119Z,18.71
2019-05-11T11:54:22.762Z,10.50
2019-05-11T11:59:28.846Z,10.29
2019-05-11T12:04:33.083Z,7.00
2019-05-11T12:09:37.770Z,14.00
2019-05-11T12:14:41.995Z,8.00
2019-05-11T12:19:47.822Z,8.00
2019-05-11T12:24:54.670Z,7.00
2019-05-11T12:29:58.417Z,7.67
2019-05-11T12:35:02.326Z,4.33
2019-05-11T12:40:08.227Z,9.00
2019-05-11T12:45:11.055Z,4.67
2019-05-11T12:50:18.648Z,4.00
2019-05-11T12:55:22.510Z,5.00
2019-05-11T13:00:31.256Z,9.33
2019-05-11T13:05:34.979Z,9.67
2019-05-11T13:10:38.531Z,9.33
2019-05-11T13:15:42.849Z,8.40
2019-05-11T13:20:49.737Z,8.80
2019-05-11T13:25:58.648Z,14.00
2019-05-11T13:31:04.499Z,7.00
2019-05-11T13:36:09.088Z,5.20
2019-05-11T13:41:18.720Z,10.00
2019-05-11T13:46:21.796Z,8.00
2019-05-11T13:51:28.551Z,12.00
2019-05-11T13:56:33.886Z,10.29
2019-05-11T14:01:39.202Z,14.71
2019-05-11T14:06:44.390Z,13.71
2019-05-11T14:11:50.624Z,8.40
2019-05-11T14:16:54.903Z,8.00
2019-05-11T14:21:59.348Z,10.00
2019-05-11T14:27:03.224Z,10.83
2019-05-11T14:32:08.693Z,13.71
2019-05-11T14:37:13.998Z,16.57
2019-05-11T14:42:22.083Z,13.00
2019-05-11T14:47:24.159Z,12.40
2019-05-11T14:52:31.454Z,19.00
2019-05-11T14:57:35.216Z,13.80
2019-05-11T15:02:39.053Z,17.50
2019-05-11T15:07:43.055Z,13.33
2019-05-11T15:12:48.824Z,10.50
2019-05-11T15:17:52.098Z,10.00
2019-05-11T15:22:58.508Z,12.57
2019-05-11T15:28:02.091Z,8.50
2019-05-11T15:33:07.884Z,11.43
2019-05-11T15:38:12.106Z,10.20
2019-05-11T15:43:17.754Z,10.40
2019-05-11T15:48:22.210Z,9.83
2019-05-11T15:53:25.929Z,12.20
2019-05-11T15:58:29.783Z,12.00
2019-05-11T16:03:37.583Z,8.83
2019-05-11T16:08:45.579Z,8.80
2019-05-11T16:13:52.475Z,15.14
2019-05-11T16:19:10.190Z,6.33
2019-05-11T16:24:02.359Z,9.00
2019-05-11T16:29:11.486Z,11.71
2019-05-11T16:34:18.422Z,6.60
2019-05-11T16:39:22.659Z,9.00
2019-05-11T16:44:28.977Z,27.62
2019-05-11T16:49:32.714Z,9.00
2019-05-11T16:54:35.639Z,8.60
2019-05-11T16:59:42.983Z,12.83
2019-05-11T17:04:51.021Z,9.30
2019-05-11T17:09:57.847Z,10.14
2019-05-11T17:15:08.660Z,10.83
2019-05-11T17:20:13.719Z,10.71
2019-05-11T17:25:19.342Z,9.67
2019-05-11T17:30:23.501Z,15.00
2019-05-11T17:35:28.871Z,11.00
2019-05-11T17:40:37.795Z,16.00
2019-05-11T17:45:44.816Z,18.75
2019-05-11T17:50:50.466Z,15.00
2019-05-11T17:55:57.787Z,22.50
2019-05-11T18:01:02.013Z,9.33
2019-05-11T18:06:08.544Z,17.12
2019-05-11T18:11:11.811Z,18.33
2019-05-11T18:16:18.751Z,14.71
2019-05-11T18:21:23.551Z,18.00
2019-05-11T18:26:31.627Z,22.25
2019-05-11T18:31:34.774Z,40.67
2019-05-11T18:36:41.278Z,15.00
2019-05-11T18:41:49.390Z,17.71
2019-05-11T18:46:59.261Z,19.86
2019-05-11T18:52:02.994Z,14.00
2019-05-11T18:57:08.415Z,11.00
2019-05-11T19:02:13.887Z,15.29
2019-05-11T19:07:20.227Z,10.67
2019-05-11T19:12:23.850Z,11.50
2019-05-11T19:17:29.187Z,11.33
2019-05-11T19:22:33.772Z,18.86
2019-05-11T19:27:38.468Z,20.00
2019-05-11T19:32:44.083Z,20.86
2019-05-11T19:37:52.109Z,25.62
2019-05-11T19:42:59.452Z,21.62
2019-05-11T19:48:04.241Z,19.71
2019-05-11T19:53:08.392Z,23.00
2019-05-11T19:58:12.772Z,21.00
2019-05-11T20:03:19.104Z,22.75
2019-05-11T20:08:23.115Z,21.00
2019-05-11T20:13:28.858Z,21.62
2019-05-11T20:18:32.383Z,17.00
2019-05-11T20:23:38.710Z,29.87
2019-05-11T20:28:42.292Z,28.00
2019-05-11T20:33:47.682Z,26.50
2019-05-11T20:38:56.398Z,30.75
2019-05-11T20:44:02.637Z,30.62
2019-05-11T20:49:07.765Z,30.00
2019-05-11T20:54:14.566Z,28.56
2019-05-11T20:59:19.782Z,28.50
2019-05-11T21:04:23.839Z,28.75
2019-05-11T21:09:32.445Z,28.00
2019-05-11T21:14:38.556Z,32.00
2019-05-11T21:19:45.122Z,29.12
2019-05-11T21:24:52.511Z,30.12
2019-05-11T21:29:59.511Z,31.00
2019-05-11T21:35:08.511Z,28.12
2019-05-11T21:40:14.389Z,30.00
2019-05-11T21:45:22.148Z,29.87
2019-05-11T21:50:29.738Z,29.89
2019-05-11T21:55:37.744Z,32.00
2019-05-11T22:00:48.615Z,32.73
2019-05-11T22:05:54.347Z,32.25
2019-05-11T22:11:00.436Z,38.00
2019-05-11T22:16:08.661Z,31.62
2019-05-11T22:21:15.532Z,33.00
2019-05-11T22:26:23.354Z,36.63
2019-05-11T22:31:29.515Z,33.63
2019-05-11T22:36:34.751Z,32.50
2019-05-11T22:41:43.454Z,29.37
2019-05-11T22:46:52.867Z,29.87
2019-05-11T22:51:59.593Z,31.75
2019-05-11T22:57:04.323Z,32.38
2019-05-11T23:02:10.931Z,32.00
2019-05-11T23:07:18.537Z,28.00
2019-05-11T23:12:28.542Z,31.86
2019-05-11T23:17:33.018Z,29.50
2019-05-11T23:22:53.499Z,31.33
2019-05-11T23:27:49.136Z,30.00
2019-05-11T23:32:53.447Z,29.33
2019-05-11T23:37:58.170Z,32.00
2019-05-11T23:43:03.028Z,29.00
2019-05-11T23:48:09.038Z,32.25
2019-05-11T23:53:14.017Z,30.00
2019-05-11T23:58:21.146Z,32.00
